sensor_id;sensor_type;location;lat;lon;timestamp;P1;durP1;ratioP1;P2;durP2;ratioP2
66633;SDS011;53546;52.184;5.596;2022-12-07T00:01:15;2.83;;;1.77;;
66633;SDS011;53546;52.184;5.596;2022-12-07T00:03:44;4.07;;;1.77;;
66633;SDS011;53546;52.184;5.596;2022-12-07T00:06:11;6.10;;;1.75;;
66633;SDS011;53546;52.184;5.596;2022-12-07T00:08:37;1.58;;;1.30;;
66633;SDS011;53546;52.184;5.596;2022-12-07T00:11:07;2.22;;;1.70;;
66633;SDS011;53546;52.184;5.596;2022-12-07T00:13:34;2.30;;;1.50;;
66633;SDS011;53546;52.184;5.596;2022-12-07T00:16:00;2.15;;;1.60;;
66633;SDS011;53546;52.184;5.596;2022-12-07T00:18:30;2.72;;;1.50;;
66633;SDS011;53546;52.184;5.596;2022-12-07T00:20:59;2.70;;;1.70;;
66633;SDS011;53546;52.184;5.596;2022-12-07T00:23:28;3.57;;;1.43;;
66633;SDS011;53546;52.184;5.596;2022-12-07T00:25:54;2.65;;;1.63;;
66633;SDS011;53546;52.184;5.596;2022-12-07T00:28:19;3.03;;;1.58;;
66633;SDS011;53546;52.184;5.596;2022-12-07T00:30:45;2.90;;;1.60;;
66633;SDS011;53546;52.184;5.596;2022-12-07T00:33:10;3.20;;;1.73;;
66633;SDS011;53546;52.184;5.596;2022-12-07T00:35:35;4.20;;;1.52;;
66633;SDS011;53546;52.184;5.596;2022-12-07T00:38:01;2.90;;;1.60;;
66633;SDS011;53546;52.184;5.596;2022-12-07T00:40:26;2.60;;;1.55;;
66633;SDS011;53546;52.184;5.596;2022-12-07T00:42:51;3.75;;;1.58;;
66633;SDS011;53546;52.184;5.596;2022-12-07T00:45:17;2.45;;;1.40;;
66633;SDS011;53546;52.184;5.596;2022-12-07T00:47:42;2.10;;;1.48;;
66633;SDS011;53546;52.184;5.596;2022-12-07T00:50:08;2.05;;;1.60;;
66633;SDS011;53546;52.184;5.596;2022-12-07T00:52:33;2.88;;;1.40;;
66633;SDS011;53546;52.184;5.596;2022-12-07T00:54:58;3.65;;;1.58;;
66633;SDS011;53546;52.184;5.596;2022-12-07T00:57:24;2.55;;;1.40;;
66633;SDS011;53546;52.184;5.596;2022-12-07T00:59:49;4.00;;;1.50;;
66633;SDS011;53546;52.184;5.596;2022-12-07T01:02:14;2.17;;;1.60;;
66633;SDS011;53546;52.184;5.596;2022-12-07T01:04:40;5.65;;;1.40;;
66633;SDS011;53546;52.184;5.596;2022-12-07T01:07:05;2.08;;;1.50;;
66633;SDS011;53546;52.184;5.596;2022-12-07T01:09:31;2.10;;;1.50;;
66633;SDS011;53546;52.184;5.596;2022-12-07T01:11:56;2.22;;;1.40;;
66633;SDS011;53546;52.184;5.596;2022-12-07T01:14:21;3.13;;;1.45;;
66633;SDS011;53546;52.184;5.596;2022-12-07T01:16:47;3.05;;;1.60;;
66633;SDS011;53546;52.184;5.596;2022-12-07T01:19:12;5.57;;;2.10;;
66633;SDS011;53546;52.184;5.596;2022-12-07T01:21:37;2.08;;;1.30;;
66633;SDS011;53546;52.184;5.596;2022-12-07T01:24:04;2.85;;;1.20;;
66633;SDS011;53546;52.184;5.596;2022-12-07T01:26:31;3.10;;;1.58;;
66633;SDS011;53546;52.184;5.596;2022-12-07T01:28:57;2.58;;;1.42;;
66633;SDS011;53546;52.184;5.596;2022-12-07T01:31:24;3.65;;;1.67;;
66633;SDS011;53546;52.184;5.596;2022-12-07T01:33:51;2.25;;;1.30;;
66633;SDS011;53546;52.184;5.596;2022-12-07T01:36:19;3.47;;;1.70;;
66633;SDS011;53546;52.184;5.596;2022-12-07T01:38:48;4.20;;;2.00;;
66633;SDS011;53546;52.184;5.596;2022-12-07T01:41:16;2.88;;;1.52;;
66633;SDS011;53546;52.184;5.596;2022-12-07T01:46:35;3.22;;;1.60;;
66633;SDS011;53546;52.184;5.596;2022-12-07T01:49:01;3.50;;;1.75;;
66633;SDS011;53546;52.184;5.596;2022-12-07T01:51:28;3.05;;;1.50;;
66633;SDS011;53546;52.184;5.596;2022-12-07T01:53:54;3.58;;;1.67;;
66633;SDS011;53546;52.184;5.596;2022-12-07T01:56:20;3.88;;;1.60;;
66633;SDS011;53546;52.184;5.596;2022-12-07T01:58:49;3.38;;;1.50;;
66633;SDS011;53546;52.184;5.596;2022-12-07T02:01:16;3.28;;;1.60;;
66633;SDS011;53546;52.184;5.596;2022-12-07T02:03:43;3.25;;;1.48;;
66633;SDS011;53546;52.184;5.596;2022-12-07T02:06:09;3.30;;;1.60;;
66633;SDS011;53546;52.184;5.596;2022-12-07T02:08:36;2.63;;;1.30;;
66633;SDS011;53546;52.184;5.596;2022-12-07T02:11:02;3.40;;;1.50;;
66633;SDS011;53546;52.184;5.596;2022-12-07T02:13:30;2.85;;;1.63;;
66633;SDS011;53546;52.184;5.596;2022-12-07T02:18:49;3.38;;;1.52;;
66633;SDS011;53546;52.184;5.596;2022-12-07T02:32:25;4.78;;;1.48;;
66633;SDS011;53546;52.184;5.596;2022-12-07T02:37:29;4.63;;;1.40;;
66633;SDS011;53546;52.184;5.596;2022-12-07T02:40:05;2.30;;;1.60;;
66633;SDS011;53546;52.184;5.596;2022-12-07T02:42:36;2.92;;;1.60;;
66633;SDS011;53546;52.184;5.596;2022-12-07T02:45:05;5.75;;;1.50;;
66633;SDS011;53546;52.184;5.596;2022-12-07T02:47:31;6.35;;;1.50;;
66633;SDS011;53546;52.184;5.596;2022-12-07T02:49:58;2.40;;;1.40;;
66633;SDS011;53546;52.184;5.596;2022-12-07T02:52:23;2.85;;;1.50;;
66633;SDS011;53546;52.184;5.596;2022-12-07T02:54:49;3.92;;;1.50;;
66633;SDS011;53546;52.184;5.596;2022-12-07T03:03:09;3.47;;;1.20;;
66633;SDS011;53546;52.184;5.596;2022-12-07T03:18:38;5.35;;;1.45;;
66633;SDS011;53546;52.184;5.596;2022-12-07T03:21:09;12.23;;;1.60;;
66633;SDS011;53546;52.184;5.596;2022-12-07T03:23:37;5.00;;;1.30;;
66633;SDS011;53546;52.184;5.596;2022-12-07T03:26:04;3.50;;;1.25;;
66633;SDS011;53546;52.184;5.596;2022-12-07T03:28:31;2.80;;;1.33;;
66633;SDS011;53546;52.184;5.596;2022-12-07T03:31:18;6.57;;;1.40;;
66633;SDS011;53546;52.184;5.596;2022-12-07T03:36:26;2.75;;;1.30;;
66633;SDS011;53546;52.184;5.596;2022-12-07T03:41:25;5.15;;;1.75;;
66633;SDS011;53546;52.184;5.596;2022-12-07T03:43:53;1.88;;;1.10;;
66633;SDS011;53546;52.184;5.596;2022-12-07T03:46:32;2.30;;;1.30;;
66633;SDS011;53546;52.184;5.596;2022-12-07T03:51:56;3.03;;;1.10;;
66633;SDS011;53546;52.184;5.596;2022-12-07T03:54:56;3.53;;;1.20;;
66633;SDS011;53546;52.184;5.596;2022-12-07T03:57:25;3.40;;;1.20;;
66633;SDS011;53546;52.184;5.596;2022-12-07T03:59:53;8.50;;;1.33;;
66633;SDS011;53546;52.184;5.596;2022-12-07T04:02:19;2.90;;;1.00;;
66633;SDS011;53546;52.184;5.596;2022-12-07T04:04:45;3.97;;;1.20;;
66633;SDS011;53546;52.184;5.596;2022-12-07T04:07:10;2.70;;;1.30;;
66633;SDS011;53546;52.184;5.596;2022-12-07T04:09:36;4.75;;;1.35;;
66633;SDS011;53546;52.184;5.596;2022-12-07T04:12:01;1.90;;;1.10;;
66633;SDS011;53546;52.184;5.596;2022-12-07T04:14:27;5.80;;;1.30;;
66633;SDS011;53546;52.184;5.596;2022-12-07T04:16:53;4.95;;;1.25;;
66633;SDS011;53546;52.184;5.596;2022-12-07T04:19:24;4.78;;;0.90;;
66633;SDS011;53546;52.184;5.596;2022-12-07T04:21:53;3.03;;;1.15;;
66633;SDS011;53546;52.184;5.596;2022-12-07T04:24:19;1.83;;;1.05;;
66633;SDS011;53546;52.184;5.596;2022-12-07T04:26:45;3.22;;;1.23;;
66633;SDS011;53546;52.184;5.596;2022-12-07T04:29:11;1.92;;;1.10;;
66633;SDS011;53546;52.184;5.596;2022-12-07T04:31:36;3.78;;;1.00;;
66633;SDS011;53546;52.184;5.596;2022-12-07T04:34:02;2.55;;;1.08;;
66633;SDS011;53546;52.184;5.596;2022-12-07T04:36:28;2.80;;;1.02;;
66633;SDS011;53546;52.184;5.596;2022-12-07T04:38:54;2.55;;;1.10;;
66633;SDS011;53546;52.184;5.596;2022-12-07T04:41:20;3.83;;;1.13;;
66633;SDS011;53546;52.184;5.596;2022-12-07T04:43:52;5.70;;;1.55;;
66633;SDS011;53546;52.184;5.596;2022-12-07T04:46:19;3.00;;;1.08;;
66633;SDS011;53546;52.184;5.596;2022-12-07T04:48:44;2.30;;;1.08;;
66633;SDS011;53546;52.184;5.596;2022-12-07T04:51:09;6.68;;;1.27;;
66633;SDS011;53546;52.184;5.596;2022-12-07T04:53:35;2.60;;;1.00;;
66633;SDS011;53546;52.184;5.596;2022-12-07T04:56:00;2.33;;;1.00;;
66633;SDS011;53546;52.184;5.596;2022-12-07T04:58:26;4.15;;;1.00;;
66633;SDS011;53546;52.184;5.596;2022-12-07T05:00:53;1.77;;;0.98;;
66633;SDS011;53546;52.184;5.596;2022-12-07T05:03:19;3.45;;;1.00;;
66633;SDS011;53546;52.184;5.596;2022-12-07T05:05:44;2.08;;;1.00;;
66633;SDS011;53546;52.184;5.596;2022-12-07T05:08:10;2.92;;;1.20;;
66633;SDS011;53546;52.184;5.596;2022-12-07T05:10:35;3.38;;;1.02;;
66633;SDS011;53546;52.184;5.596;2022-12-07T05:13:00;5.15;;;1.20;;
66633;SDS011;53546;52.184;5.596;2022-12-07T05:15:26;4.93;;;1.38;;
66633;SDS011;53546;52.184;5.596;2022-12-07T05:17:51;2.03;;;1.00;;
66633;SDS011;53546;52.184;5.596;2022-12-07T05:20:17;2.95;;;1.10;;
66633;SDS011;53546;52.184;5.596;2022-12-07T05:22:42;3.05;;;1.27;;
66633;SDS011;53546;52.184;5.596;2022-12-07T05:25:08;1.40;;;0.95;;
66633;SDS011;53546;52.184;5.596;2022-12-07T05:27:34;2.15;;;1.10;;
66633;SDS011;53546;52.184;5.596;2022-12-07T05:29:59;3.83;;;1.17;;
66633;SDS011;53546;52.184;5.596;2022-12-07T05:32:25;1.85;;;1.00;;
66633;SDS011;53546;52.184;5.596;2022-12-07T05:34:50;3.63;;;1.25;;
66633;SDS011;53546;52.184;5.596;2022-12-07T05:37:15;9.35;;;1.30;;
66633;SDS011;53546;52.184;5.596;2022-12-07T05:39:41;9.98;;;2.25;;
66633;SDS011;53546;52.184;5.596;2022-12-07T05:42:08;11.30;;;2.58;;
66633;SDS011;53546;52.184;5.596;2022-12-07T05:44:41;11.40;;;2.55;;
66633;SDS011;53546;52.184;5.596;2022-12-07T05:47:08;14.07;;;2.20;;
66633;SDS011;53546;52.184;5.596;2022-12-07T05:49:34;11.60;;;2.67;;
66633;SDS011;53546;52.184;5.596;2022-12-07T05:51:59;9.13;;;2.28;;
66633;SDS011;53546;52.184;5.596;2022-12-07T05:54:24;5.68;;;1.88;;
66633;SDS011;53546;52.184;5.596;2022-12-07T05:56:50;7.63;;;2.10;;
66633;SDS011;53546;52.184;5.596;2022-12-07T05:59:15;8.63;;;1.88;;
66633;SDS011;53546;52.184;5.596;2022-12-07T06:01:47;5.60;;;1.50;;
66633;SDS011;53546;52.184;5.596;2022-12-07T06:04:16;4.47;;;1.67;;
66633;SDS011;53546;52.184;5.596;2022-12-07T06:06:42;25.25;;;4.03;;
66633;SDS011;53546;52.184;5.596;2022-12-07T06:09:07;21.63;;;4.07;;
66633;SDS011;53546;52.184;5.596;2022-12-07T06:11:33;13.68;;;3.20;;
66633;SDS011;53546;52.184;5.596;2022-12-07T06:14:17;12.75;;;3.10;;
66633;SDS011;53546;52.184;5.596;2022-12-07T06:16:42;26.65;;;3.28;;
66633;SDS011;53546;52.184;5.596;2022-12-07T06:19:07;13.05;;;2.58;;
66633;SDS011;53546;52.184;5.596;2022-12-07T06:21:33;12.57;;;2.60;;
66633;SDS011;53546;52.184;5.596;2022-12-07T06:23:58;17.27;;;2.72;;
66633;SDS011;53546;52.184;5.596;2022-12-07T06:26:24;10.32;;;2.55;;
66633;SDS011;53546;52.184;5.596;2022-12-07T06:28:49;13.20;;;2.58;;
66633;SDS011;53546;52.184;5.596;2022-12-07T06:31:14;9.75;;;2.00;;
66633;SDS011;53546;52.184;5.596;2022-12-07T06:33:40;6.15;;;1.75;;
66633;SDS011;53546;52.184;5.596;2022-12-07T06:36:06;7.55;;;1.70;;
66633;SDS011;53546;52.184;5.596;2022-12-07T06:38:32;9.95;;;1.75;;
66633;SDS011;53546;52.184;5.596;2022-12-07T06:40:57;6.88;;;1.65;;
66633;SDS011;53546;52.184;5.596;2022-12-07T06:43:23;10.10;;;1.88;;
66633;SDS011;53546;52.184;5.596;2022-12-07T06:45:48;7.18;;;1.63;;
66633;SDS011;53546;52.184;5.596;2022-12-07T06:48:16;6.47;;;1.90;;
66633;SDS011;53546;52.184;5.596;2022-12-07T06:50:44;8.20;;;1.63;;
66633;SDS011;53546;52.184;5.596;2022-12-07T06:53:10;8.02;;;1.55;;
66633;SDS011;53546;52.184;5.596;2022-12-07T06:55:35;7.00;;;1.50;;
66633;SDS011;53546;52.184;5.596;2022-12-07T06:58:00;6.68;;;1.75;;
66633;SDS011;53546;52.184;5.596;2022-12-07T07:00:27;5.85;;;1.60;;
66633;SDS011;53546;52.184;5.596;2022-12-07T07:02:53;11.52;;;1.85;;
66633;SDS011;53546;52.184;5.596;2022-12-07T07:05:18;5.38;;;1.45;;
66633;SDS011;53546;52.184;5.596;2022-12-07T07:07:46;4.30;;;1.60;;
66633;SDS011;53546;52.184;5.596;2022-12-07T07:10:12;3.72;;;1.27;;
66633;SDS011;53546;52.184;5.596;2022-12-07T07:12:38;6.05;;;1.27;;
66633;SDS011;53546;52.184;5.596;2022-12-07T07:15:03;4.07;;;1.20;;
66633;SDS011;53546;52.184;5.596;2022-12-07T07:17:29;4.95;;;1.48;;
66633;SDS011;53546;52.184;5.596;2022-12-07T07:19:55;3.67;;;1.10;;
66633;SDS011;53546;52.184;5.596;2022-12-07T07:22:20;3.88;;;1.20;;
66633;SDS011;53546;52.184;5.596;2022-12-07T07:24:45;4.32;;;1.17;;
66633;SDS011;53546;52.184;5.596;2022-12-07T07:27:11;2.38;;;1.30;;
66633;SDS011;53546;52.184;5.596;2022-12-07T07:29:36;4.65;;;1.67;;
66633;SDS011;53546;52.184;5.596;2022-12-07T07:32:01;6.15;;;1.40;;
66633;SDS011;53546;52.184;5.596;2022-12-07T07:34:27;4.50;;;1.02;;
66633;SDS011;53546;52.184;5.596;2022-12-07T07:36:52;4.55;;;1.30;;
66633;SDS011;53546;52.184;5.596;2022-12-07T07:39:17;3.10;;;1.30;;
66633;SDS011;53546;52.184;5.596;2022-12-07T07:41:43;5.22;;;1.27;;
66633;SDS011;53546;52.184;5.596;2022-12-07T07:44:09;7.88;;;1.30;;
66633;SDS011;53546;52.184;5.596;2022-12-07T07:46:34;3.13;;;1.50;;
66633;SDS011;53546;52.184;5.596;2022-12-07T07:49:00;4.38;;;1.35;;
66633;SDS011;53546;52.184;5.596;2022-12-07T07:51:25;3.15;;;1.00;;
66633;SDS011;53546;52.184;5.596;2022-12-07T07:53:50;3.15;;;1.10;;
66633;SDS011;53546;52.184;5.596;2022-12-07T07:56:16;2.58;;;1.05;;
66633;SDS011;53546;52.184;5.596;2022-12-07T07:58:41;8.27;;;1.17;;
66633;SDS011;53546;52.184;5.596;2022-12-07T08:01:07;2.47;;;1.00;;
66633;SDS011;53546;52.184;5.596;2022-12-07T08:03:33;3.60;;;1.30;;
66633;SDS011;53546;52.184;5.596;2022-12-07T08:05:58;3.15;;;1.10;;
66633;SDS011;53546;52.184;5.596;2022-12-07T08:08:24;3.33;;;1.23;;
66633;SDS011;53546;52.184;5.596;2022-12-07T08:10:49;2.95;;;1.40;;
66633;SDS011;53546;52.184;5.596;2022-12-07T08:13:15;2.05;;;1.10;;
66633;SDS011;53546;52.184;5.596;2022-12-07T08:15:45;3.97;;;1.33;;
66633;SDS011;53546;52.184;5.596;2022-12-07T08:18:12;2.22;;;1.00;;
66633;SDS011;53546;52.184;5.596;2022-12-07T08:20:38;3.42;;;1.30;;
66633;SDS011;53546;52.184;5.596;2022-12-07T08:23:04;3.10;;;1.20;;
66633;SDS011;53546;52.184;5.596;2022-12-07T08:25:30;3.83;;;1.10;;
66633;SDS011;53546;52.184;5.596;2022-12-07T08:27:56;5.57;;;1.27;;
66633;SDS011;53546;52.184;5.596;2022-12-07T08:30:22;3.58;;;1.20;;
66633;SDS011;53546;52.184;5.596;2022-12-07T08:32:47;4.38;;;1.15;;
66633;SDS011;53546;52.184;5.596;2022-12-07T08:35:13;4.05;;;1.38;;
66633;SDS011;53546;52.184;5.596;2022-12-07T08:37:39;8.45;;;1.50;;
66633;SDS011;53546;52.184;5.596;2022-12-07T08:40:05;4.18;;;1.30;;
66633;SDS011;53546;52.184;5.596;2022-12-07T08:42:31;5.13;;;1.38;;
66633;SDS011;53546;52.184;5.596;2022-12-07T08:45:05;3.80;;;1.20;;
66633;SDS011;53546;52.184;5.596;2022-12-07T08:47:36;5.90;;;1.17;;
66633;SDS011;53546;52.184;5.596;2022-12-07T08:50:03;5.32;;;1.30;;
66633;SDS011;53546;52.184;5.596;2022-12-07T08:52:30;4.32;;;1.30;;
66633;SDS011;53546;52.184;5.596;2022-12-07T08:54:56;7.75;;;1.27;;
66633;SDS011;53546;52.184;5.596;2022-12-07T08:57:21;5.22;;;1.50;;
66633;SDS011;53546;52.184;5.596;2022-12-07T08:59:47;9.70;;;1.20;;
66633;SDS011;53546;52.184;5.596;2022-12-07T09:02:12;6.10;;;1.15;;
66633;SDS011;53546;52.184;5.596;2022-12-07T09:04:38;5.65;;;1.65;;
66633;SDS011;53546;52.184;5.596;2022-12-07T09:07:03;4.88;;;1.38;;
66633;SDS011;53546;52.184;5.596;2022-12-07T09:09:29;5.07;;;1.40;;
66633;SDS011;53546;52.184;5.596;2022-12-07T09:11:54;4.07;;;1.27;;
66633;SDS011;53546;52.184;5.596;2022-12-07T09:14:20;2.60;;;1.40;;
66633;SDS011;53546;52.184;5.596;2022-12-07T09:16:45;6.43;;;1.40;;
66633;SDS011;53546;52.184;5.596;2022-12-07T09:19:11;6.60;;;1.70;;
66633;SDS011;53546;52.184;5.596;2022-12-07T09:21:36;15.38;;;1.98;;
66633;SDS011;53546;52.184;5.596;2022-12-07T09:24:01;9.65;;;1.63;;
66633;SDS011;53546;52.184;5.596;2022-12-07T09:26:27;5.10;;;1.50;;
66633;SDS011;53546;52.184;5.596;2022-12-07T09:28:52;12.88;;;1.90;;
66633;SDS011;53546;52.184;5.596;2022-12-07T09:31:17;6.55;;;1.83;;
66633;SDS011;53546;52.184;5.596;2022-12-07T09:33:43;10.32;;;1.40;;
66633;SDS011;53546;52.184;5.596;2022-12-07T09:36:09;18.17;;;1.48;;
66633;SDS011;53546;52.184;5.596;2022-12-07T09:38:35;13.57;;;1.70;;
66633;SDS011;53546;52.184;5.596;2022-12-07T09:41:04;26.13;;;1.92;;
66633;SDS011;53546;52.184;5.596;2022-12-07T09:43:31;4.70;;;1.52;;
66633;SDS011;53546;52.184;5.596;2022-12-07T09:45:56;6.63;;;1.38;;
66633;SDS011;53546;52.184;5.596;2022-12-07T09:48:36;11.15;;;2.00;;
66633;SDS011;53546;52.184;5.596;2022-12-07T09:51:02;12.05;;;1.70;;
66633;SDS011;53546;52.184;5.596;2022-12-07T09:56:03;14.85;;;1.88;;
66633;SDS011;53546;52.184;5.596;2022-12-07T09:58:29;6.80;;;1.65;;
66633;SDS011;53546;52.184;5.596;2022-12-07T10:01:00;6.30;;;1.77;;
66633;SDS011;53546;52.184;5.596;2022-12-07T10:03:37;6.43;;;1.48;;
66633;SDS011;53546;52.184;5.596;2022-12-07T10:06:04;3.88;;;1.83;;
66633;SDS011;53546;52.184;5.596;2022-12-07T10:08:30;9.25;;;1.33;;
66633;SDS011;53546;52.184;5.596;2022-12-07T10:10:56;2.38;;;1.35;;
66633;SDS011;53546;52.184;5.596;2022-12-07T10:13:33;5.75;;;1.50;;
66633;SDS011;53546;52.184;5.596;2022-12-07T10:16:06;6.85;;;1.50;;
66633;SDS011;53546;52.184;5.596;2022-12-07T10:18:33;6.72;;;1.77;;
66633;SDS011;53546;52.184;5.596;2022-12-07T10:21:13;3.47;;;1.38;;
66633;SDS011;53546;52.184;5.596;2022-12-07T10:26:36;7.38;;;1.65;;
66633;SDS011;53546;52.184;5.596;2022-12-07T10:29:15;5.22;;;1.20;;
66633;SDS011;53546;52.184;5.596;2022-12-07T10:31:43;2.63;;;1.05;;
66633;SDS011;53546;52.184;5.596;2022-12-07T10:36:53;8.30;;;1.20;;
66633;SDS011;53546;52.184;5.596;2022-12-07T10:39:19;7.38;;;1.55;;
66633;SDS011;53546;52.184;5.596;2022-12-07T10:44:21;5.32;;;1.30;;
66633;SDS011;53546;52.184;5.596;2022-12-07T10:46:54;5.15;;;1.30;;
66633;SDS011;53546;52.184;5.596;2022-12-07T10:52:30;9.25;;;1.40;;
66633;SDS011;53546;52.184;5.596;2022-12-07T10:55:06;4.65;;;1.75;;
66633;SDS011;53546;52.184;5.596;2022-12-07T10:57:47;7.55;;;1.30;;
66633;SDS011;53546;52.184;5.596;2022-12-07T11:00:54;4.28;;;1.38;;
66633;SDS011;53546;52.184;5.596;2022-12-07T11:06:08;5.80;;;1.60;;
66633;SDS011;53546;52.184;5.596;2022-12-07T11:16:39;8.48;;;1.40;;
66633;SDS011;53546;52.184;5.596;2022-12-07T11:19:20;6.13;;;1.42;;
66633;SDS011;53546;52.184;5.596;2022-12-07T11:21:57;8.63;;;1.40;;
66633;SDS011;53546;52.184;5.596;2022-12-07T11:24:41;5.97;;;1.95;;
66633;SDS011;53546;52.184;5.596;2022-12-07T11:35:40;7.38;;;1.50;;
66633;SDS011;53546;52.184;5.596;2022-12-07T11:40:40;6.88;;;1.25;;
66633;SDS011;53546;52.184;5.596;2022-12-07T11:46:19;5.53;;;1.15;;
66633;SDS011;53546;52.184;5.596;2022-12-07T11:48:38;7.35;;;1.33;;
66633;SDS011;53546;52.184;5.596;2022-12-07T11:51:06;10.80;;;1.50;;
66633;SDS011;53546;52.184;5.596;2022-12-07T11:56:15;9.38;;;1.67;;
66633;SDS011;53546;52.184;5.596;2022-12-07T12:06:38;26.52;;;13.43;;
66633;SDS011;53546;52.184;5.596;2022-12-07T12:14:37;43.60;;;22.58;;
66633;SDS011;53546;52.184;5.596;2022-12-07T12:17:24;49.55;;;24.85;;
66633;SDS011;53546;52.184;5.596;2022-12-07T12:23:24;48.47;;;25.17;;
66633;SDS011;53546;52.184;5.596;2022-12-07T12:25:59;60.15;;;28.08;;
66633;SDS011;53546;52.184;5.596;2022-12-07T12:28:28;59.30;;;29.08;;
66633;SDS011;53546;52.184;5.596;2022-12-07T12:31:04;57.92;;;27.52;;
66633;SDS011;53546;52.184;5.596;2022-12-07T12:33:31;51.20;;;28.17;;
66633;SDS011;53546;52.184;5.596;2022-12-07T12:46:47;52.85;;;24.50;;
66633;SDS011;53546;52.184;5.596;2022-12-07T12:56:43;40.15;;;21.75;;
66633;SDS011;53546;52.184;5.596;2022-12-07T13:05:02;35.55;;;18.42;;
66633;SDS011;53546;52.184;5.596;2022-12-07T13:15:32;33.38;;;15.88;;
66633;SDS011;53546;52.184;5.596;2022-12-07T13:20:57;27.40;;;14.77;;
66633;SDS011;53546;52.184;5.596;2022-12-07T13:28:40;18.95;;;11.18;;
66633;SDS011;53546;52.184;5.596;2022-12-07T13:31:13;23.50;;;10.88;;
66633;SDS011;53546;52.184;5.596;2022-12-07T13:33:46;25.10;;;11.52;;
66633;SDS011;53546;52.184;5.596;2022-12-07T13:36:14;20.23;;;10.13;;
66633;SDS011;53546;52.184;5.596;2022-12-07T13:38:53;20.10;;;10.48;;
66633;SDS011;53546;52.184;5.596;2022-12-07T13:41:24;20.15;;;9.95;;
66633;SDS011;53546;52.184;5.596;2022-12-07T13:44:02;20.92;;;9.48;;
66633;SDS011;53546;52.184;5.596;2022-12-07T13:51:50;15.68;;;8.68;;
66633;SDS011;53546;52.184;5.596;2022-12-07T13:54:17;19.73;;;8.55;;
66633;SDS011;53546;52.184;5.596;2022-12-07T13:56:42;13.40;;;7.60;;
66633;SDS011;53546;52.184;5.596;2022-12-07T13:59:16;18.70;;;8.50;;
66633;SDS011;53546;52.184;5.596;2022-12-07T14:01:47;16.48;;;8.07;;
66633;SDS011;53546;52.184;5.596;2022-12-07T14:04:17;14.32;;;7.13;;
66633;SDS011;53546;52.184;5.596;2022-12-07T14:06:48;13.88;;;6.90;;
66633;SDS011;53546;52.184;5.596;2022-12-07T14:09:22;13.60;;;6.82;;
66633;SDS011;53546;52.184;5.596;2022-12-07T14:11:50;13.63;;;6.65;;
66633;SDS011;53546;52.184;5.596;2022-12-07T14:14:30;13.65;;;6.13;;
66633;SDS011;53546;52.184;5.596;2022-12-07T14:16:58;13.90;;;6.05;;
66633;SDS011;53546;52.184;5.596;2022-12-07T14:22:38;12.45;;;5.97;;
66633;SDS011;53546;52.184;5.596;2022-12-07T14:30:18;9.77;;;4.90;;
66633;SDS011;53546;52.184;5.596;2022-12-07T14:32:44;15.32;;;4.65;;
66633;SDS011;53546;52.184;5.596;2022-12-07T14:35:13;14.85;;;5.13;;
66633;SDS011;53546;52.184;5.596;2022-12-07T14:37:40;9.27;;;4.60;;
66633;SDS011;53546;52.184;5.596;2022-12-07T14:40:07;14.20;;;4.68;;
66633;SDS011;53546;52.184;5.596;2022-12-07T14:42:34;12.18;;;4.72;;
66633;SDS011;53546;52.184;5.596;2022-12-07T14:45:00;11.18;;;4.68;;
66633;SDS011;53546;52.184;5.596;2022-12-07T14:47:26;7.43;;;3.80;;
66633;SDS011;53546;52.184;5.596;2022-12-07T14:49:52;9.02;;;4.72;;
66633;SDS011;53546;52.184;5.596;2022-12-07T14:52:22;5.03;;;3.50;;
66633;SDS011;53546;52.184;5.596;2022-12-07T14:54:48;9.38;;;4.00;;
66633;SDS011;53546;52.184;5.596;2022-12-07T14:57:14;9.07;;;3.60;;
66633;SDS011;53546;52.184;5.596;2022-12-07T14:59:39;11.23;;;3.65;;
66633;SDS011;53546;52.184;5.596;2022-12-07T15:02:05;6.35;;;3.83;;
66633;SDS011;53546;52.184;5.596;2022-12-07T15:04:32;5.57;;;3.25;;
66633;SDS011;53546;52.184;5.596;2022-12-07T15:06:58;7.53;;;3.60;;
66633;SDS011;53546;52.184;5.596;2022-12-07T15:09:25;9.90;;;4.30;;
66633;SDS011;53546;52.184;5.596;2022-12-07T15:11:50;6.03;;;3.60;;
66633;SDS011;53546;52.184;5.596;2022-12-07T15:14:16;8.73;;;3.58;;
66633;SDS011;53546;52.184;5.596;2022-12-07T15:16:41;6.18;;;3.45;;
66633;SDS011;53546;52.184;5.596;2022-12-07T15:19:17;6.40;;;3.28;;
66633;SDS011;53546;52.184;5.596;2022-12-07T15:21:44;7.28;;;3.08;;
66633;SDS011;53546;52.184;5.596;2022-12-07T15:24:11;8.07;;;3.50;;
66633;SDS011;53546;52.184;5.596;2022-12-07T15:26:37;5.07;;;2.88;;
66633;SDS011;53546;52.184;5.596;2022-12-07T15:29:03;5.43;;;2.88;;
66633;SDS011;53546;52.184;5.596;2022-12-07T15:31:29;5.10;;;2.60;;
66633;SDS011;53546;52.184;5.596;2022-12-07T15:33:54;7.97;;;2.80;;
66633;SDS011;53546;52.184;5.596;2022-12-07T15:36:21;6.53;;;2.72;;
66633;SDS011;53546;52.184;5.596;2022-12-07T15:38:52;7.03;;;2.88;;
66633;SDS011;53546;52.184;5.596;2022-12-07T15:41:17;8.38;;;2.55;;
66633;SDS011;53546;52.184;5.596;2022-12-07T15:43:43;5.82;;;2.80;;
66633;SDS011;53546;52.184;5.596;2022-12-07T15:46:34;4.30;;;2.60;;
66633;SDS011;53546;52.184;5.596;2022-12-07T15:49:03;5.63;;;2.28;;
66633;SDS011;53546;52.184;5.596;2022-12-07T15:51:29;4.15;;;2.63;;
66633;SDS011;53546;52.184;5.596;2022-12-07T15:53:55;5.25;;;2.40;;
66633;SDS011;53546;52.184;5.596;2022-12-07T15:56:22;10.15;;;2.35;;
66633;SDS011;53546;52.184;5.596;2022-12-07T15:58:47;6.70;;;3.15;;
66633;SDS011;53546;52.184;5.596;2022-12-07T16:01:13;3.60;;;2.50;;
66633;SDS011;53546;52.184;5.596;2022-12-07T16:03:40;4.13;;;2.55;;
66633;SDS011;53546;52.184;5.596;2022-12-07T16:06:06;5.93;;;2.83;;
66633;SDS011;53546;52.184;5.596;2022-12-07T16:08:31;5.45;;;2.33;;
66633;SDS011;53546;52.184;5.596;2022-12-07T16:10:57;4.32;;;2.38;;
66633;SDS011;53546;52.184;5.596;2022-12-07T16:13:22;4.10;;;2.45;;
66633;SDS011;53546;52.184;5.596;2022-12-07T16:15:48;7.07;;;2.65;;
66633;SDS011;53546;52.184;5.596;2022-12-07T16:18:13;4.43;;;2.38;;
66633;SDS011;53546;52.184;5.596;2022-12-07T16:20:39;3.90;;;2.22;;
66633;SDS011;53546;52.184;5.596;2022-12-07T16:23:05;7.20;;;2.20;;
66633;SDS011;53546;52.184;5.596;2022-12-07T16:25:30;5.72;;;2.28;;
66633;SDS011;53546;52.184;5.596;2022-12-07T16:27:56;4.60;;;2.33;;
66633;SDS011;53546;52.184;5.596;2022-12-07T16:30:21;2.95;;;2.17;;
66633;SDS011;53546;52.184;5.596;2022-12-07T16:32:46;3.67;;;2.03;;
66633;SDS011;53546;52.184;5.596;2022-12-07T16:35:12;5.20;;;2.63;;
66633;SDS011;53546;52.184;5.596;2022-12-07T16:37:38;3.65;;;2.42;;
66633;SDS011;53546;52.184;5.596;2022-12-07T16:40:03;3.05;;;2.30;;
66633;SDS011;53546;52.184;5.596;2022-12-07T16:42:33;4.07;;;2.30;;
66633;SDS011;53546;52.184;5.596;2022-12-07T16:44:59;3.22;;;2.38;;
66633;SDS011;53546;52.184;5.596;2022-12-07T16:47:24;3.55;;;2.40;;
66633;SDS011;53546;52.184;5.596;2022-12-07T16:49:50;7.22;;;2.45;;
66633;SDS011;53546;52.184;5.596;2022-12-07T16:52:17;4.40;;;2.35;;
66633;SDS011;53546;52.184;5.596;2022-12-07T16:54:42;5.53;;;2.35;;
66633;SDS011;53546;52.184;5.596;2022-12-07T16:57:08;4.82;;;2.50;;
66633;SDS011;53546;52.184;5.596;2022-12-07T16:59:33;7.60;;;2.53;;
66633;SDS011;53546;52.184;5.596;2022-12-07T17:01:59;6.63;;;2.78;;
66633;SDS011;53546;52.184;5.596;2022-12-07T17:04:24;5.60;;;2.85;;
66633;SDS011;53546;52.184;5.596;2022-12-07T17:06:49;4.30;;;2.35;;
66633;SDS011;53546;52.184;5.596;2022-12-07T17:09:15;8.00;;;2.50;;
66633;SDS011;53546;52.184;5.596;2022-12-07T17:11:43;4.88;;;2.70;;
66633;SDS011;53546;52.184;5.596;2022-12-07T17:14:09;4.07;;;2.60;;
66633;SDS011;53546;52.184;5.596;2022-12-07T17:16:53;5.18;;;2.53;;
66633;SDS011;53546;52.184;5.596;2022-12-07T17:19:18;4.25;;;2.50;;
66633;SDS011;53546;52.184;5.596;2022-12-07T17:21:44;4.03;;;2.50;;
66633;SDS011;53546;52.184;5.596;2022-12-07T17:24:10;2.78;;;2.20;;
66633;SDS011;53546;52.184;5.596;2022-12-07T17:26:37;4.63;;;2.30;;